Terminal Aerodrome Forecast
Issued by NWS

Home | Current Version | Previous Version | Graphics & Text | Print | Product List | Glossary On
Versions: 1 2 3 4 5 6 7 8 9 10 11 12 13 14 15 16 17 18 19 20 21 22 23 24 25 26 27 28
000
FTUS43 KABR 250900 AAB
TAFPIR
TAF AMD
KPIR 250914Z 2509/2606 05011KT P6SM OVC070
      TEMPO 2511/2515 BKN030
     FM251500 02013KT P6SM OVC025
     FM251800 01018G28KT P6SM OVC015
     FM252300 35015G22KT P6SM OVC060=

USA.gov is the U.S. government's official web portal to all federal, state and local government web resources and services.